sensor_id;sensor_type;location;lat;lon;timestamp;pressure;altitude;pressure_sealevel;temperature;humidity
50774;BME280;36745;48.544;8.918;2024-02-15T00:03:00;97840.44;;;8.39;100.00
50774;BME280;36745;48.544;8.918;2024-02-15T00:06:20;97840.50;;;8.35;100.00
50774;BME280;36745;48.544;8.918;2024-02-15T00:09:40;97850.69;;;8.35;100.00
50774;BME280;36745;48.544;8.918;2024-02-15T00:13:00;97850.81;;;8.24;100.00
50774;BME280;36745;48.544;8.918;2024-02-15T00:16:20;97841.38;;;8.25;100.00
50774;BME280;36745;48.544;8.918;2024-02-15T00:19:41;97846.03;;;8.28;100.00
50774;BME280;36745;48.544;8.918;2024-02-15T00:23:01;97836.13;;;8.38;100.00
50774;BME280;36745;48.544;8.918;2024-02-15T00:26:20;97842.88;;;8.33;100.00
50774;BME280;36745;48.544;8.918;2024-02-15T00:29:40;97840.50;;;8.32;100.00
50774;BME280;36745;48.544;8.918;2024-02-15T00:33:00;97843.69;;;8.27;100.00
50774;BME280;36745;48.544;8.918;2024-02-15T00:36:22;97846.88;;;8.25;100.00
50774;BME280;36745;48.544;8.918;2024-02-15T00:39:42;97832.13;;;8.12;100.00
50774;BME280;36745;48.544;8.918;2024-02-15T00:43:02;97833.81;;;8.02;100.00
50774;BME280;36745;48.544;8.918;2024-02-15T00:46:22;97829.06;;;8.07;100.00
50774;BME280;36745;48.544;8.918;2024-02-15T00:49:42;97829.88;;;8.04;100.00
50774;BME280;36745;48.544;8.918;2024-02-15T00:53:01;97833.03;;;8.02;100.00
50774;BME280;36745;48.544;8.918;2024-02-15T00:56:21;97831.53;;;7.97;100.00
50774;BME280;36745;48.544;8.918;2024-02-15T00:59:42;97824.66;;;7.82;100.00
50774;BME280;36745;48.544;8.918;2024-02-15T01:03:01;97817.22;;;7.79;100.00
50774;BME280;36745;48.544;8.918;2024-02-15T01:06:22;97811.44;;;7.70;100.00
50774;BME280;36745;48.544;8.918;2024-02-15T01:09:42;97815.88;;;7.61;100.00
50774;BME280;36745;48.544;8.918;2024-02-15T01:13:02;97818.63;;;7.57;100.00
50774;BME280;36745;48.544;8.918;2024-02-15T01:16:22;97818.78;;;7.43;100.00
50774;BME280;36745;48.544;8.918;2024-02-15T01:19:42;97823.75;;;7.18;100.00
50774;BME280;36745;48.544;8.918;2024-02-15T01:23:01;97835.56;;;7.07;100.00
50774;BME280;36745;48.544;8.918;2024-02-15T01:26:21;97829.41;;;6.93;100.00
50774;BME280;36745;48.544;8.918;2024-02-15T01:29:43;97829.47;;;6.86;100.00
50774;BME280;36745;48.544;8.918;2024-02-15T01:33:03;97818.53;;;6.82;100.00
50774;BME280;36745;48.544;8.918;2024-02-15T01:36:22;97828.00;;;6.70;100.00
50774;BME280;36745;48.544;8.918;2024-02-15T01:39:42;97822.25;;;6.58;100.00
50774;BME280;36745;48.544;8.918;2024-02-15T01:43:03;97820.34;;;6.48;100.00
50774;BME280;36745;48.544;8.918;2024-02-15T01:46:23;97824.31;;;6.40;100.00
50774;BME280;36745;48.544;8.918;2024-02-15T01:49:44;97820.41;;;6.33;100.00
50774;BME280;36745;48.544;8.918;2024-02-15T01:53:07;97825.94;;;6.26;100.00
50774;BME280;36745;48.544;8.918;2024-02-15T01:56:27;97821.69;;;6.18;100.00
50774;BME280;36745;48.544;8.918;2024-02-15T01:59:50;97824.06;;;6.06;100.00
50774;BME280;36745;48.544;8.918;2024-02-15T02:03:13;97816.69;;;5.99;100.00
50774;BME280;36745;48.544;8.918;2024-02-15T02:06:34;97819.81;;;5.94;100.00
50774;BME280;36745;48.544;8.918;2024-02-15T02:09:53;97817.88;;;5.84;100.00
50774;BME280;36745;48.544;8.918;2024-02-15T02:13:13;97817.91;;;5.73;100.00
50774;BME280;36745;48.544;8.918;2024-02-15T02:16:33;97821.06;;;5.72;100.00
50774;BME280;36745;48.544;8.918;2024-02-15T02:19:54;97817.56;;;5.57;100.00
50774;BME280;36745;48.544;8.918;2024-02-15T02:23:14;97821.50;;;5.53;100.00
50774;BME280;36745;48.544;8.918;2024-02-15T02:26:35;97825.03;;;5.49;100.00
50774;BME280;36745;48.544;8.918;2024-02-15T02:29:54;97834.03;;;5.36;100.00
50774;BME280;36745;48.544;8.918;2024-02-15T02:33:15;97823.16;;;5.18;100.00
50774;BME280;36745;48.544;8.918;2024-02-15T02:36:38;97813.38;;;5.03;100.00
50774;BME280;36745;48.544;8.918;2024-02-15T02:39:57;97812.63;;;4.95;100.00
50774;BME280;36745;48.544;8.918;2024-02-15T02:43:17;97816.13;;;4.89;100.00
50774;BME280;36745;48.544;8.918;2024-02-15T02:46:37;97812.22;;;4.90;100.00
50774;BME280;36745;48.544;8.918;2024-02-15T02:49:57;97808.72;;;4.86;100.00
50774;BME280;36745;48.544;8.918;2024-02-15T02:53:16;97807.56;;;4.80;100.00
50774;BME280;36745;48.544;8.918;2024-02-15T02:56:36;97820.41;;;4.76;100.00
50774;BME280;36745;48.544;8.918;2024-02-15T02:59:56;97808.69;;;4.64;100.00
50774;BME280;36745;48.544;8.918;2024-02-15T03:03:16;97812.97;;;4.55;100.00
50774;BME280;36745;48.544;8.918;2024-02-15T03:06:36;97813.75;;;4.55;100.00
50774;BME280;36745;48.544;8.918;2024-02-15T03:09:56;97824.28;;;4.60;100.00
50774;BME280;36745;48.544;8.918;2024-02-15T03:13:15;97827.41;;;4.55;100.00
50774;BME280;36745;48.544;8.918;2024-02-15T03:16:35;97828.56;;;4.51;100.00
50774;BME280;36745;48.544;8.918;2024-02-15T03:19:55;97830.50;;;4.40;100.00
50774;BME280;36745;48.544;8.918;2024-02-15T03:23:15;97816.88;;;4.36;100.00
50774;BME280;36745;48.544;8.918;2024-02-15T03:26:35;97813.72;;;4.23;100.00
50774;BME280;36745;48.544;8.918;2024-02-15T03:29:57;97811.38;;;4.29;100.00
50774;BME280;36745;48.544;8.918;2024-02-15T03:33:19;97812.16;;;4.30;100.00
50774;BME280;36745;48.544;8.918;2024-02-15T03:36:40;97812.94;;;4.30;100.00
50774;BME280;36745;48.544;8.918;2024-02-15T03:40:00;97813.31;;;4.25;100.00
50774;BME280;36745;48.544;8.918;2024-02-15T03:43:19;97817.19;;;4.17;100.00
50774;BME280;36745;48.544;8.918;2024-02-15T03:46:39;97813.69;;;4.16;100.00
50774;BME280;36745;48.544;8.918;2024-02-15T03:49:59;97816.41;;;4.09;100.00
50774;BME280;36745;48.544;8.918;2024-02-15T03:53:19;97820.66;;;4.07;100.00
50774;BME280;36745;48.544;8.918;2024-02-15T03:56:49;97826.91;;;4.11;100.00
50774;BME280;36745;48.544;8.918;2024-02-15T04:00:11;97820.66;;;4.07;100.00
50774;BME280;36745;48.544;8.918;2024-02-15T04:03:33;97822.69;;;4.20;100.00
50774;BME280;36745;48.544;8.918;2024-02-15T04:06:53;97826.63;;;4.37;100.00
50774;BME280;36745;48.544;8.918;2024-02-15T04:10:13;97833.22;;;4.43;100.00
50774;BME280;36745;48.544;8.918;2024-02-15T04:13:33;97823.88;;;4.37;100.00
50774;BME280;36745;48.544;8.918;2024-02-15T04:16:53;97823.88;;;4.44;100.00
50774;BME280;36745;48.544;8.918;2024-02-15T04:20:13;97825.44;;;4.45;100.00
50774;BME280;36745;48.544;8.918;2024-02-15T04:23:35;97828.19;;;4.52;100.00
50774;BME280;36745;48.544;8.918;2024-02-15T04:26:55;97832.47;;;4.46;100.00
50774;BME280;36745;48.544;8.918;2024-02-15T04:30:15;97835.59;;;4.48;100.00
50774;BME280;36745;48.544;8.918;2024-02-15T04:33:35;97825.44;;;4.45;100.00
50774;BME280;36745;48.544;8.918;2024-02-15T04:36:54;97827.00;;;4.50;100.00
50774;BME280;36745;48.544;8.918;2024-02-15T04:40:15;97828.56;;;4.54;100.00
50774;BME280;36745;48.544;8.918;2024-02-15T04:43:35;97827.41;;;4.52;100.00
50774;BME280;36745;48.544;8.918;2024-02-15T04:46:57;97816.06;;;4.43;100.00
50774;BME280;36745;48.544;8.918;2024-02-15T04:50:17;97810.63;;;4.46;100.00
50774;BME280;36745;48.544;8.918;2024-02-15T04:53:37;97811.41;;;4.50;100.00
50774;BME280;36745;48.544;8.918;2024-02-15T04:56:58;97812.97;;;4.44;100.00
50774;BME280;36745;48.544;8.918;2024-02-15T05:00:18;97814.53;;;4.42;100.00
50774;BME280;36745;48.544;8.918;2024-02-15T05:03:43;97812.97;;;4.37;100.00
50774;BME280;36745;48.544;8.918;2024-02-15T05:07:03;97805.13;;;4.29;100.00
50774;BME280;36745;48.544;8.918;2024-02-15T05:10:23;97793.41;;;4.17;100.00
50774;BME280;36745;48.544;8.918;2024-02-15T05:13:46;97800.44;;;4.18;100.00
50774;BME280;36745;48.544;8.918;2024-02-15T05:17:06;97793.03;;;4.22;100.00
50774;BME280;36745;48.544;8.918;2024-02-15T05:20:29;97793.81;;;4.23;100.00
50774;BME280;36745;48.544;8.918;2024-02-15T05:23:49;97790.31;;;4.19;100.00
50774;BME280;36745;48.544;8.918;2024-02-15T05:27:08;97788.75;;;4.21;100.00
50774;BME280;36745;48.544;8.918;2024-02-15T05:30:28;97791.81;;;4.06;100.00
50774;BME280;36745;48.544;8.918;2024-02-15T05:33:53;97798.44;;;3.98;100.00
50774;BME280;36745;48.544;8.918;2024-02-15T05:37:13;97795.31;;;3.96;100.00
50774;BME280;36745;48.544;8.918;2024-02-15T05:40:33;97796.09;;;4.00;100.00
50774;BME280;36745;48.544;8.918;2024-02-15T05:43:52;97797.25;;;3.88;100.00
50774;BME280;36745;48.544;8.918;2024-02-15T05:47:12;97798.75;;;3.78;100.00
50774;BME280;36745;48.544;8.918;2024-02-15T05:50:32;97808.91;;;3.82;100.00
50774;BME280;36745;48.544;8.918;2024-02-15T05:53:52;97809.66;;;3.78;100.00
50774;BME280;36745;48.544;8.918;2024-02-15T05:57:17;97805.72;;;3.65;100.00
50774;BME280;36745;48.544;8.918;2024-02-15T06:00:37;97809.56;;;3.54;100.00
50774;BME280;36745;48.544;8.918;2024-02-15T06:03:57;97808.00;;;3.56;100.00
50774;BME280;36745;48.544;8.918;2024-02-15T06:07:17;97808.75;;;3.50;100.00
50774;BME280;36745;48.544;8.918;2024-02-15T06:10:38;97815.41;;;3.56;100.00
50774;BME280;36745;48.544;8.918;2024-02-15T06:13:59;97813.00;;;3.47;100.00
50774;BME280;36745;48.544;8.918;2024-02-15T06:17:18;97802.44;;;3.35;100.00
50774;BME280;36745;48.544;8.918;2024-02-15T06:20:38;97806.34;;;3.41;100.00
50774;BME280;36745;48.544;8.918;2024-02-15T06:23:58;97807.97;;;3.49;100.00
50774;BME280;36745;48.544;8.918;2024-02-15T06:27:18;97807.94;;;3.42;100.00
50774;BME280;36745;48.544;8.918;2024-02-15T06:30:38;97803.91;;;3.22;100.00
50774;BME280;36745;48.544;8.918;2024-02-15T06:34:17;97803.13;;;3.18;100.00
50774;BME280;36745;48.544;8.918;2024-02-15T06:37:55;97790.72;;;3.24;100.00
50774;BME280;36745;48.544;8.918;2024-02-15T06:41:33;97790.22;;;3.11;100.00
50774;BME280;36745;48.544;8.918;2024-02-15T06:44:53;97784.50;;;3.27;100.00
50774;BME280;36745;48.544;8.918;2024-02-15T06:48:13;97793.09;;;3.36;100.00
50774;BME280;36745;48.544;8.918;2024-02-15T06:51:33;97785.38;;;3.45;100.00
50774;BME280;36745;48.544;8.918;2024-02-15T06:54:53;97786.94;;;3.50;100.00
50774;BME280;36745;48.544;8.918;2024-02-15T06:58:13;97792.41;;;3.53;100.00
50774;BME280;36745;48.544;8.918;2024-02-15T07:01:35;97785.44;;;3.63;100.00
50774;BME280;36745;48.544;8.918;2024-02-15T07:04:54;97790.94;;;3.66;100.00
50774;BME280;36745;48.544;8.918;2024-02-15T07:08:14;97795.63;;;3.76;100.00
50774;BME280;36745;48.544;8.918;2024-02-15T07:11:34;97798.81;;;4.00;100.00
50774;BME280;36745;48.544;8.918;2024-02-15T07:14:54;97794.97;;;4.11;100.00
50774;BME280;36745;48.544;8.918;2024-02-15T07:18:17;97791.06;;;4.12;100.00
50774;BME280;36745;48.544;8.918;2024-02-15T07:21:38;97793.44;;;4.21;100.00
50774;BME280;36745;48.544;8.918;2024-02-15T07:24:57;97780.56;;;4.32;100.00
50774;BME280;36745;48.544;8.918;2024-02-15T07:28:17;97791.91;;;4.41;100.00
50774;BME280;36745;48.544;8.918;2024-02-15T07:31:37;97787.22;;;4.59;100.00
50774;BME280;36745;48.544;8.918;2024-02-15T07:34:58;97772.03;;;4.73;100.00
50774;BME280;36745;48.544;8.918;2024-02-15T07:38:18;97773.19;;;4.89;100.00
50774;BME280;36745;48.544;8.918;2024-02-15T07:41:38;97773.19;;;5.07;100.00
50774;BME280;36745;48.544;8.918;2024-02-15T07:44:58;97764.53;;;5.26;100.00
50774;BME280;36745;48.544;8.918;2024-02-15T07:48:18;97757.06;;;5.48;100.00
50774;BME280;36745;48.544;8.918;2024-02-15T07:51:38;97750.38;;;5.60;100.00
50774;BME280;36745;48.544;8.918;2024-02-15T07:54:58;97744.47;;;5.72;100.00
50774;BME280;36745;48.544;8.918;2024-02-15T07:58:17;97737.69;;;6.01;100.00
50774;BME280;36745;48.544;8.918;2024-02-15T08:01:40;97750.06;;;6.27;100.00
50774;BME280;36745;48.544;8.918;2024-02-15T08:05:00;97737.06;;;6.42;100.00
50774;BME280;36745;48.544;8.918;2024-02-15T08:08:23;97722.47;;;6.55;100.00
50774;BME280;36745;48.544;8.918;2024-02-15T08:11:43;97724.25;;;6.76;100.00
50774;BME280;36745;48.544;8.918;2024-02-15T08:15:03;97722.16;;;6.91;100.00
50774;BME280;36745;48.544;8.918;2024-02-15T08:18:24;97718.16;;;6.99;100.00
50774;BME280;36745;48.544;8.918;2024-02-15T08:21:45;97717.25;;;7.12;100.00
50774;BME280;36745;48.544;8.918;2024-02-15T08:25:11;97721.84;;;7.23;100.00
50774;BME280;36745;48.544;8.918;2024-02-15T08:28:30;97716.56;;;7.39;100.00
50774;BME280;36745;48.544;8.918;2024-02-15T08:31:50;97711.50;;;7.37;100.00
50774;BME280;36745;48.544;8.918;2024-02-15T08:35:11;97707.88;;;7.44;100.00
50774;BME280;36745;48.544;8.918;2024-02-15T08:38:31;97709.88;;;7.40;100.00
50774;BME280;36745;48.544;8.918;2024-02-15T08:41:51;97706.59;;;7.55;100.00
50774;BME280;36745;48.544;8.918;2024-02-15T08:45:12;97709.66;;;7.57;100.00
50774;BME280;36745;48.544;8.918;2024-02-15T08:48:33;97693.84;;;7.69;100.00
50774;BME280;36745;48.544;8.918;2024-02-15T08:51:52;97689.88;;;7.73;100.00
50774;BME280;36745;48.544;8.918;2024-02-15T08:55:12;97693.63;;;7.86;100.00
50774;BME280;36745;48.544;8.918;2024-02-15T08:58:35;97696.88;;;8.05;100.00
50774;BME280;36745;48.544;8.918;2024-02-15T09:01:55;97694.91;;;8.05;100.00
50774;BME280;36745;48.544;8.918;2024-02-15T09:05:15;97690.56;;;8.08;100.00
50774;BME280;36745;48.544;8.918;2024-02-15T09:08:35;97682.75;;;8.33;100.00
50774;BME280;36745;48.544;8.918;2024-02-15T09:11:54;97688.28;;;8.29;100.00
50774;BME280;36745;48.544;8.918;2024-02-15T09:15:14;97674.03;;;8.38;100.00
50774;BME280;36745;48.544;8.918;2024-02-15T09:18:34;97670.91;;;8.63;100.00
50774;BME280;36745;48.544;8.918;2024-02-15T09:21:55;97669.34;;;8.85;100.00
50774;BME280;36745;48.544;8.918;2024-02-15T09:25:16;97669.28;;;8.89;100.00
50774;BME280;36745;48.544;8.918;2024-02-15T09:28:36;97667.81;;;9.04;100.00
50774;BME280;36745;48.544;8.918;2024-02-15T09:31:56;97651.78;;;8.99;100.00
50774;BME280;36745;48.544;8.918;2024-02-15T09:35:16;97658.63;;;8.91;100.00
50774;BME280;36745;48.544;8.918;2024-02-15T09:38:36;97647.56;;;9.14;100.00
50774;BME280;36745;48.544;8.918;2024-02-15T09:41:57;97636.13;;;9.35;100.00
50774;BME280;36745;48.544;8.918;2024-02-15T09:45:18;97635.53;;;9.27;100.00
50774;BME280;36745;48.544;8.918;2024-02-15T09:48:40;97640.47;;;9.16;100.00
50774;BME280;36745;48.544;8.918;2024-02-15T09:52:03;97625.34;;;9.44;100.00
50774;BME280;36745;48.544;8.918;2024-02-15T09:55:24;97631.94;;;9.66;100.00
50774;BME280;36745;48.544;8.918;2024-02-15T09:58:45;97620.34;;;9.75;100.00
50774;BME280;36745;48.544;8.918;2024-02-15T10:02:05;97619.25;;;9.89;99.55
50774;BME280;36745;48.544;8.918;2024-02-15T10:05:30;97617.75;;;10.04;100.00
50774;BME280;36745;48.544;8.918;2024-02-15T10:08:50;97613.25;;;10.10;98.79
50774;BME280;36745;48.544;8.918;2024-02-15T10:12:10;97619.81;;;10.16;98.17
50774;BME280;36745;48.544;8.918;2024-02-15T10:15:31;97613.25;;;10.10;97.01
50774;BME280;36745;48.544;8.918;2024-02-15T10:18:51;97604.84;;;10.17;97.38
50774;BME280;36745;48.544;8.918;2024-02-15T10:22:11;97602.06;;;10.01;97.10
50774;BME280;36745;48.544;8.918;2024-02-15T10:25:32;97598.25;;;10.11;97.40
50774;BME280;36745;48.544;8.918;2024-02-15T10:29:05;97595.47;;;10.31;96.80
50774;BME280;36745;48.544;8.918;2024-02-15T10:32:34;97587.75;;;10.55;97.25
50774;BME280;36745;48.544;8.918;2024-02-15T10:36:10;97584.97;;;10.71;97.04
50774;BME280;36745;48.544;8.918;2024-02-15T10:39:33;97586.88;;;10.74;96.10
50774;BME280;36745;48.544;8.918;2024-02-15T10:42:53;97586.25;;;10.82;96.04
50774;BME280;36745;48.544;8.918;2024-02-15T10:46:15;97581.69;;;10.76;95.00
50774;BME280;36745;48.544;8.918;2024-02-15T10:49:36;97584.50;;;10.88;95.90
50774;BME280;36745;48.544;8.918;2024-02-15T10:52:57;97584.75;;;10.94;94.84
50774;BME280;36745;48.544;8.918;2024-02-15T10:56:18;97582.03;;;11.19;95.69
50774;BME280;36745;48.544;8.918;2024-02-15T10:59:56;97584.19;;;11.28;93.78
50774;BME280;36745;48.544;8.918;2024-02-15T11:03:25;97575.25;;;11.36;94.26
50774;BME280;36745;48.544;8.918;2024-02-15T11:06:50;97560.78;;;11.45;93.64
50774;BME280;36745;48.544;8.918;2024-02-15T11:10:12;97556.28;;;11.64;93.96
50774;BME280;36745;48.544;8.918;2024-02-15T11:13:36;97544.03;;;11.77;92.86
50774;BME280;36745;48.544;8.918;2024-02-15T11:16:56;97549.31;;;11.72;91.54
50774;BME280;36745;48.544;8.918;2024-02-15T11:23:51;97544.88;;;12.25;91.75
50774;BME280;36745;48.544;8.918;2024-02-15T11:27:11;97540.78;;;12.30;89.15
50774;BME280;36745;48.544;8.918;2024-02-15T11:30:33;97542.41;;;12.40;89.85
50774;BME280;36745;48.544;8.918;2024-02-15T11:33:53;97534.91;;;12.62;89.52
50774;BME280;36745;48.544;8.918;2024-02-15T11:41:08;97523.19;;;13.01;88.67
50774;BME280;36745;48.544;8.918;2024-02-15T11:44:30;97522.53;;;13.41;88.43
50774;BME280;36745;48.544;8.918;2024-02-15T11:47:53;97519.75;;;14.30;89.76
50774;BME280;36745;48.544;8.918;2024-02-15T11:51:29;97522.72;;;14.81;87.20
50774;BME280;36745;48.544;8.918;2024-02-15T11:54:49;97512.53;;;15.05;84.84
50774;BME280;36745;48.544;8.918;2024-02-15T11:58:09;97510.63;;;15.30;82.81
50774;BME280;36745;48.544;8.918;2024-02-15T12:01:29;97493.50;;;15.73;81.09
50774;BME280;36745;48.544;8.918;2024-02-15T12:05:09;97491.53;;;15.13;74.76
50774;BME280;36745;48.544;8.918;2024-02-15T12:08:48;97485.47;;;15.75;78.72
50774;BME280;36745;48.544;8.918;2024-02-15T12:12:27;97486.19;;;16.09;72.24
50774;BME280;36745;48.544;8.918;2024-02-15T12:16:05;97478.63;;;16.33;74.98
50774;BME280;36745;48.544;8.918;2024-02-15T12:19:43;97476.19;;;16.50;75.18
50774;BME280;36745;48.544;8.918;2024-02-15T12:23:03;97473.84;;;16.33;72.78
50774;BME280;36745;48.544;8.918;2024-02-15T12:26:26;97467.09;;;16.25;72.35
50774;BME280;36745;48.544;8.918;2024-02-15T12:29:57;97468.16;;;16.28;70.64
50774;BME280;36745;48.544;8.918;2024-02-15T12:33:17;97459.81;;;16.28;71.22
50774;BME280;36745;48.544;8.918;2024-02-15T12:36:39;97461.63;;;16.31;69.83
50774;BME280;36745;48.544;8.918;2024-02-15T12:40:10;97447.22;;;15.94;69.32
50774;BME280;36745;48.544;8.918;2024-02-15T12:43:30;97445.47;;;15.73;68.24
50774;BME280;36745;48.544;8.918;2024-02-15T12:46:56;97438.94;;;15.85;69.94
50774;BME280;36745;48.544;8.918;2024-02-15T12:50:22;97445.63;;;16.02;69.61
50774;BME280;36745;48.544;8.918;2024-02-15T12:53:42;97445.91;;;16.04;68.91
50774;BME280;36745;48.544;8.918;2024-02-15T12:57:08;97435.13;;;16.21;69.10
50774;BME280;36745;48.544;8.918;2024-02-15T13:00:34;97425.50;;;16.07;66.85
50774;BME280;36745;48.544;8.918;2024-02-15T13:03:55;97416.16;;;16.19;67.40
50774;BME280;36745;48.544;8.918;2024-02-15T13:07:15;97420.09;;;16.27;67.83
50774;BME280;36745;48.544;8.918;2024-02-15T13:10:36;97415.72;;;16.35;66.46
50774;BME280;36745;48.544;8.918;2024-02-15T13:14:17;97414.44;;;15.98;64.93
50774;BME280;36745;48.544;8.918;2024-02-15T13:17:39;97401.72;;;16.06;66.36
50774;BME280;36745;48.544;8.918;2024-02-15T13:20:58;97401.78;;;15.97;65.45
50774;BME280;36745;48.544;8.918;2024-02-15T13:24:18;97405.75;;;15.81;65.03
50774;BME280;36745;48.544;8.918;2024-02-15T13:27:40;97404.81;;;15.84;65.29
50774;BME280;36745;48.544;8.918;2024-02-15T13:31:00;97389.84;;;15.82;65.76
50774;BME280;36745;48.544;8.918;2024-02-15T13:34:20;97387.34;;;15.60;65.69
50774;BME280;36745;48.544;8.918;2024-02-15T13:37:46;97384.69;;;15.66;66.60
50774;BME280;36745;48.544;8.918;2024-02-15T13:41:06;97379.34;;;15.20;64.91
50774;BME280;36745;48.544;8.918;2024-02-15T13:44:26;97374.22;;;15.28;65.74
50774;BME280;36745;48.544;8.918;2024-02-15T13:47:46;97368.56;;;15.46;66.87
50774;BME280;36745;48.544;8.918;2024-02-15T13:51:07;97360.13;;;15.40;65.50
50774;BME280;36745;48.544;8.918;2024-02-15T13:54:29;97352.75;;;15.37;65.82
50774;BME280;36745;48.544;8.918;2024-02-15T13:57:49;97347.81;;;15.32;66.20
50774;BME280;36745;48.544;8.918;2024-02-15T14:01:09;97348.81;;;15.44;66.15
50774;BME280;36745;48.544;8.918;2024-02-15T14:04:33;97349.59;;;15.44;65.99
50774;BME280;36745;48.544;8.918;2024-02-15T14:08:03;97344.22;;;15.41;65.86
50774;BME280;36745;48.544;8.918;2024-02-15T14:11:24;97345.44;;;15.40;65.76
50774;BME280;36745;48.544;8.918;2024-02-15T14:14:44;97341.25;;;15.44;65.88
50774;BME280;36745;48.544;8.918;2024-02-15T14:18:08;97336.00;;;15.46;65.78
50774;BME280;36745;48.544;8.918;2024-02-15T14:21:30;97326.13;;;15.55;66.00
50774;BME280;36745;48.544;8.918;2024-02-15T14:24:53;97328.25;;;15.60;66.01
50774;BME280;36745;48.544;8.918;2024-02-15T14:28:13;97323.63;;;15.57;65.03
50774;BME280;36745;48.544;8.918;2024-02-15T14:31:33;97321.16;;;15.59;64.67
50774;BME280;36745;48.544;8.918;2024-02-15T14:35:13;97321.16;;;15.59;65.26
50774;BME280;36745;48.544;8.918;2024-02-15T14:38:33;97316.81;;;15.58;65.09
50774;BME280;36745;48.544;8.918;2024-02-15T14:41:53;97319.91;;;15.60;65.02
50774;BME280;36745;48.544;8.918;2024-02-15T14:45:13;97314.50;;;15.56;64.88
50774;BME280;36745;48.544;8.918;2024-02-15T14:48:33;97318.38;;;15.59;64.31
50774;BME280;36745;48.544;8.918;2024-02-15T14:51:53;97310.97;;;15.56;64.39
50774;BME280;36745;48.544;8.918;2024-02-15T14:55:13;97312.22;;;15.55;64.37
50774;BME280;36745;48.544;8.918;2024-02-15T14:58:33;97318.25;;;15.53;64.13
50774;BME280;36745;48.544;8.918;2024-02-15T15:01:52;97315.78;;;15.46;64.38
50774;BME280;36745;48.544;8.918;2024-02-15T15:05:13;97317.09;;;15.36;64.18
50774;BME280;36745;48.544;8.918;2024-02-15T15:08:51;97320.69;;;15.27;64.02
50774;BME280;36745;48.544;8.918;2024-02-15T15:12:29;97311.75;;;15.23;64.61
50774;BME280;36745;48.544;8.918;2024-02-15T15:16:00;97308.06;;;15.17;65.16
50774;BME280;36745;48.544;8.918;2024-02-15T15:19:19;97313.50;;;15.11;65.50
50774;BME280;36745;48.544;8.918;2024-02-15T15:22:39;97310.91;;;15.08;65.71
50774;BME280;36745;48.544;8.918;2024-02-15T15:26:02;97305.69;;;15.01;65.78
50774;BME280;36745;48.544;8.918;2024-02-15T15:29:22;97306.66;;;14.98;66.24
50774;BME280;36745;48.544;8.918;2024-02-15T15:32:42;97299.13;;;14.89;66.43
50774;BME280;36745;48.544;8.918;2024-02-15T15:36:03;97304.84;;;14.86;66.72
50774;BME280;36745;48.544;8.918;2024-02-15T15:39:23;97294.09;;;14.79;67.23
50774;BME280;36745;48.544;8.918;2024-02-15T15:42:44;97287.94;;;14.75;67.32
50774;BME280;36745;48.544;8.918;2024-02-15T15:46:04;97290.75;;;14.65;67.54
50774;BME280;36745;48.544;8.918;2024-02-15T15:49:23;97289.56;;;14.57;67.59
50774;BME280;36745;48.544;8.918;2024-02-15T15:52:43;97285.88;;;14.51;68.20
50774;BME280;36745;48.544;8.918;2024-02-15T15:56:06;97283.09;;;14.42;68.30
50774;BME280;36745;48.544;8.918;2024-02-15T15:59:26;97278.78;;;14.32;68.34
50774;BME280;36745;48.544;8.918;2024-02-15T16:02:45;97278.50;;;14.21;68.54
50774;BME280;36745;48.544;8.918;2024-02-15T16:06:05;97273.31;;;14.14;68.60
50774;BME280;36745;48.544;8.918;2024-02-15T16:09:27;97276.56;;;13.94;69.52
50774;BME280;36745;48.544;8.918;2024-02-15T16:12:46;97272.41;;;13.80;69.94
50774;BME280;36745;48.544;8.918;2024-02-15T16:16:06;97272.28;;;13.75;70.30
50774;BME280;36745;48.544;8.918;2024-02-15T16:19:27;97271.50;;;13.65;70.60
50774;BME280;36745;48.544;8.918;2024-02-15T16:22:47;97269.94;;;13.55;71.13
50774;BME280;36745;48.544;8.918;2024-02-15T16:26:08;97265.63;;;13.36;72.18
50774;BME280;36745;48.544;8.918;2024-02-15T16:29:29;97267.78;;;13.32;72.40
50774;BME280;36745;48.544;8.918;2024-02-15T16:32:48;97265.47;;;13.21;73.03
50774;BME280;36745;48.544;8.918;2024-02-15T16:36:10;97265.22;;;13.07;74.26
50774;BME280;36745;48.544;8.918;2024-02-15T16:39:29;97257.69;;;12.98;74.33
50774;BME280;36745;48.544;8.918;2024-02-15T16:42:49;97263.06;;;12.92;75.43
50774;BME280;36745;48.544;8.918;2024-02-15T16:46:10;97252.88;;;12.80;75.72
50774;BME280;36745;48.544;8.918;2024-02-15T16:49:32;97249.13;;;12.65;76.33
50774;BME280;36745;48.544;8.918;2024-02-15T16:52:52;97257.09;;;12.54;76.90
50774;BME280;36745;48.544;8.918;2024-02-15T16:56:16;97264.16;;;12.55;76.98
50774;BME280;36745;48.544;8.918;2024-02-15T16:59:36;97256.44;;;12.41;77.50
50774;BME280;36745;48.544;8.918;2024-02-15T17:02:56;97257.50;;;12.43;77.45
50774;BME280;36745;48.544;8.918;2024-02-15T17:06:16;97259.47;;;12.34;78.61
50774;BME280;36745;48.544;8.918;2024-02-15T17:09:36;97265.75;;;12.34;79.45
50774;BME280;36745;48.544;8.918;2024-02-15T17:12:56;97260.38;;;12.31;79.08
50774;BME280;36745;48.544;8.918;2024-02-15T17:16:17;97249.59;;;12.24;79.27
50774;BME280;36745;48.544;8.918;2024-02-15T17:19:37;97251.25;;;12.21;79.01
50774;BME280;36745;48.544;8.918;2024-02-15T17:22:57;97259.06;;;12.13;80.08
50774;BME280;36745;48.544;8.918;2024-02-15T17:26:17;97263.38;;;11.93;80.37
50774;BME280;36745;48.544;8.918;2024-02-15T17:29:38;97261.31;;;11.84;81.78
50774;BME280;36745;48.544;8.918;2024-02-15T17:32:58;97268.00;;;11.74;82.02
50774;BME280;36745;48.544;8.918;2024-02-15T17:36:18;97261.03;;;11.69;82.05
50774;BME280;36745;48.544;8.918;2024-02-15T17:39:38;97275.13;;;11.71;82.28
50774;BME280;36745;48.544;8.918;2024-02-15T17:42:58;97276.09;;;11.56;83.27
50774;BME280;36745;48.544;8.918;2024-02-15T17:46:18;97278.97;;;11.52;83.91
50774;BME280;36745;48.544;8.918;2024-02-15T17:49:38;97276.22;;;11.52;83.72
50774;BME280;36745;48.544;8.918;2024-02-15T17:52:57;97287.84;;;11.47;84.38
50774;BME280;36745;48.544;8.918;2024-02-15T17:56:17;97282.75;;;11.46;83.92